Time;durP1;ratioP1;P1;durP2;ratioP2;P2;SDS_P1;SDS_P2;PMS_P1;PMS_P2;Temp;Humidity;BMP_temperature;BMP_pressure;BME280_temperature;BME280_humidity;BME280_pressure;Samples;Min_cycle;Max_cycle;Signal;HPM_P1;HPM_P2
2022/07/18 06:19:25;;;;;;;17.08;2.30;;;;;;;18.70;45.13;97308.09;2107502;27;20559;-66
2022/07/18 06:20:26;;;;;;;8.90;2.95;;;;;;;18.84;45.21;97297.44;2106994;28;20693;-66
2022/07/18 06:21:28;;;;;;;11.57;3.88;;;;;;;18.97;44.98;97304.56;2106572;28;20285;-67
2022/07/18 06:22:29;;;;;;;14.95;2.42;;;;;;;19.11;44.88;97303.63;2100829;27;20211;-67
2022/07/18 06:23:31;;;;;;;10.98;2.10;;;;;;;19.25;44.72;97303.53;2099611;28;20215;-64
2022/07/18 06:24:32;;;;;;;8.68;2.13;;;;;;;19.19;44.85;97309.25;2098176;28;20199;-67
2022/07/18 06:25:34;;;;;;;12.35;2.35;;;;;;;19.28;45.09;97294.53;2099334;28;20554;-67
2022/07/18 06:26:35;;;;;;;4.40;2.05;;;;;;;19.37;44.57;97305.28;2097921;28;20775;-67
2022/07/18 06:27:37;;;;;;;10.45;2.35;;;;;;;19.47;44.95;97305.50;2096734;28;20215;-67
2022/07/18 06:54:43;;;;;;;38.22;4.25;;;;;;;22.35;38.74;97292.59;2085542;28;20544;-65
2022/07/18 06:55:45;;;;;;;48.25;4.78;;;;;;;22.34;38.45;97293.56;2084332;28;20200;-66
2022/07/18 06:56:46;;;;;;;62.67;5.63;;;;;;;22.53;37.63;97270.78;2083633;28;20551;-65
2022/07/18 06:57:48;;;;;;;78.70;5.70;;;;;;;22.70;37.40;97289.81;2075046;28;20246;-66
2022/07/18 06:58:50;;;;;;;29.30;3.65;;;;;;;22.67;37.60;97290.91;2073223;28;20198;-65
2022/07/18 06:59:53;;;;;;;39.35;3.50;;;;;;;22.72;38.00;97279.91;2073267;28;20207;-65
2022/07/18 07:00:59;;;;;;;64.30;4.72;;;;;;;22.93;36.90;97294.06;2073852;28;20225;-65
2022/07/18 07:02:02;;;;;;;38.47;3.25;;;;;;;23.01;36.02;97296.06;2073638;28;20225;-66
2022/07/18 07:03:03;;;;;;;21.98;2.78;;;;;;;23.05;35.62;97296.66;2074229;28;20208;-66
2022/07/18 07:04:05;;;;;;;36.00;2.88;;;;;;;23.13;35.30;97294.16;2073627;28;20189;-66
2022/07/18 07:05:07;;;;;;;35.35;3.55;;;;;;;23.09;34.50;97293.56;2073290;28;20198;-66
2022/07/18 07:31:32;;;;;;;2.45;1.20;;;;;;;24.11;28.96;97279.44;2083702;28;20565;-65
2022/07/18 07:32:36;;;;;;;5.40;1.23;;;;;;;24.04;29.13;97286.28;2077932;28;20216;-65
2022/07/18 07:33:37;;;;;;;3.15;1.50;;;;;;;24.41;29.35;97295.47;2078638;28;20193;-65
2022/07/18 07:34:39;;;;;;;8.07;1.75;;;;;;;24.51;28.23;97295.47;2078707;28;20193;-65
2022/07/18 07:35:40;;;;;;;3.58;1.40;;;;;;;24.72;28.25;97298.88;2077706;28;20278;-65
2022/07/18 07:36:42;;;;;;;6.47;1.52;;;;;;;24.68;27.76;97297.44;2077223;28;20193;-65
2022/07/18 07:37:46;;;;;;;5.57;1.40;;;;;;;24.65;28.34;97291.56;2078854;28;20197;-66
2022/07/18 07:38:48;;;;;;;4.05;1.30;;;;;;;24.70;28.39;97291.97;2078206;28;20201;-65
2022/07/18 07:39:50;;;;;;;4.97;1.92;;;;;;;24.87;28.83;97299.25;2078633;28;20212;-65
2022/07/18 07:40:52;;;;;;;8.52;1.70;;;;;;;24.94;28.18;97287.00;2078674;28;20209;-65
2022/07/18 07:41:53;;;;;;;6.55;1.85;;;;;;;24.98;28.40;97294.75;2078369;28;20656;-65
2022/07/18 07:43:09;;;;;;;5.15;1.30;;;;;;;24.94;27.86;97297.69;2078647;28;20943;-65
2022/07/18 07:44:11;;;;;;;2.47;1.17;;;;;;;25.12;27.93;97299.63;2077512;28;20675;-65
2022/07/18 08:11:54;;;;;;;3.78;1.40;;;;;;;26.19;27.92;97284.97;2083403;28;20577;-65
2022/07/18 08:12:57;;;;;;;7.05;1.55;;;;;;;26.21;27.88;97276.81;2082755;28;20201;-65
2022/07/18 08:13:59;;;;;;;4.63;1.88;;;;;;;26.29;27.18;97284.91;2081419;28;20201;-65
2022/07/18 08:15:01;;;;;;;3.42;1.50;;;;;;;26.13;27.51;97282.94;2080865;28;20778;-65
2022/07/18 08:16:03;;;;;;;7.88;1.85;;;;;;;26.55;26.78;97289.50;2078964;28;20279;-65
2022/07/18 08:17:04;;;;;;;5.10;1.50;;;;;;;26.56;25.84;97284.00;2076496;28;20224;-65
2022/07/18 08:18:06;;;;;;;4.28;1.88;;;;;;;26.41;26.29;97277.53;2079798;28;20205;-65
2022/07/18 08:19:07;;;;;;;3.63;1.48;;;;;;;26.70;26.32;97279.94;2084860;28;20196;-65
2022/07/18 08:20:11;;;;;;;9.10;1.50;;;;;;;26.81;26.29;97280.72;2079378;28;20671;-66
2022/07/18 08:21:14;;;;;;;6.07;1.30;;;;;;;26.91;25.77;97281.47;2082517;28;20250;-65
2022/07/18 08:22:15;;;;;;;11.27;1.50;;;;;;;27.06;24.63;97279.06;2083489;28;20255;-65
2022/07/18 08:23:17;;;;;;;3.05;1.50;;;;;;;26.85;24.77;97280.22;2084725;28;20196;-66
2022/07/18 08:24:18;;;;;;;4.95;1.48;;;;;;;26.82;25.39;97285.91;2083130;28;20196;-65
2022/07/18 08:25:20;;;;;;;5.50;1.58;;;;;;;26.81;25.78;97283.41;2081645;28;20197;-65
2022/07/18 08:26:22;;;;;;;8.35;1.40;;;;;;;27.06;25.73;97281.75;2078366;28;20204;-65
2022/07/18 08:27:23;;;;;;;3.25;1.60;;;;;;;27.18;25.41;97285.81;2082297;28;20580;-65
2022/07/18 08:28:25;;;;;;;3.92;1.75;;;;;;;27.24;25.13;97281.69;2082579;28;20189;-66
2022/07/18 08:56:40;;;;;;;9.90;1.60;;;;;;;27.86;23.45;97270.75;2084296;28;20555;-67
2022/07/18 08:57:41;;;;;;;2.55;1.25;;;;;;;28.02;23.81;97288.78;2077678;28;20200;-67
2022/07/18 08:58:43;;;;;;;7.22;1.75;;;;;;;28.31;23.30;97279.44;2077789;28;20201;-68
2022/07/18 08:59:46;;;;;;;5.88;1.55;;;;;;;28.42;23.44;97277.47;2077131;28;20197;-68
2022/07/18 09:00:48;;;;;;;6.38;2.35;;;;;;;28.42;23.31;97282.84;2078092;28;20711;-68
2022/07/18 09:01:49;;;;;;;5.22;2.00;;;;;;;28.63;23.09;97274.28;2076902;28;20197;-66
2022/07/18 09:02:59;;;;;;;5.40;1.52;;;;;;;28.34;22.88;97272.91;2076668;28;20192;-65
2022/07/18 09:04:16;;;;;;;13.00;3.15;;;;;;;28.45;23.14;97277.13;2074981;28;20197;-66
2022/07/18 09:05:19;;;;;;;3.75;1.48;;;;;;;28.71;22.83;97282.38;2077001;28;20284;-65
2022/07/18 09:06:48;;;;;;;6.22;1.60;;;;;;;28.87;22.64;97281.53;2073945;28;20189;-65
2022/07/18 09:07:50;;;;;;;4.88;1.52;;;;;;;28.74;22.78;97281.22;2066779;28;20205;-66
2022/07/18 09:09:00;;;;;;;5.55;1.40;;;;;;;28.80;22.59;97277.84;2068329;28;20575;-66
2022/07/18 09:10:04;;;;;;;5.07;1.42;;;;;;;28.62;23.08;97277.97;2067043;28;20197;-65
2022/07/18 09:11:10;;;;;;;9.43;1.70;;;;;;;28.76;22.64;97284.56;2068434;28;20198;-65
2022/07/18 09:12:32;;;;;;;6.32;1.38;;;;;;;28.55;22.73;97266.25;2072628;28;20235;-65
2022/07/18 09:13:42;;;;;;;4.50;1.33;;;;;;;28.48;22.85;97284.84;2073805;28;20204;-66
2022/07/18 09:14:44;;;;;;;5.70;1.25;;;;;;;28.57;22.75;97286.56;2077606;28;20602;-65
2022/07/18 09:16:05;;;;;;;4.70;1.45;;;;;;;28.51;22.61;97289.91;2078199;28;20197;-65
2022/07/18 09:17:11;;;;;;;2.78;1.33;;;;;;;28.45;22.85;97282.50;2075101;28;20592;-65
2022/07/18 09:18:12;;;;;;;5.07;3.25;;;;;;;28.65;22.52;97286.53;2074602;28;20584;-65
2022/07/18 09:45:53;;;;;;;12.32;1.55;;;;;;;29.62;21.55;97258.03;2085457;27;20577;-65
2022/07/18 09:47:02;;;;;;;21.70;2.30;;;;;;;30.22;20.75;97269.19;2076230;28;20192;-65
2022/07/18 09:48:06;;;;;;;3.60;1.63;;;;;;;30.51;20.51;97260.41;2069287;28;20201;-65
2022/07/18 09:49:09;;;;;;;5.40;1.20;;;;;;;30.23;19.99;97276.25;2068983;28;20205;-65
2022/07/18 09:50:20;;;;;;;4.40;1.30;;;;;;;30.04;20.61;97274.84;2069801;28;20221;-65
2022/07/18 09:51:21;;;;;;;19.58;2.17;;;;;;;29.63;21.57;97268.59;2070434;28;20236;-65
2022/07/18 09:52:23;;;;;;;10.02;1.60;;;;;;;29.28;21.40;97267.22;2063859;28;20878;-65
2022/07/18 09:53:31;;;;;;;5.80;2.00;;;;;;;28.78;21.99;97272.63;2078192;28;20698;-65
2022/07/18 09:54:40;;;;;;;2.30;0.90;;;;;;;29.10;21.22;97267.38;2068741;28;20235;-65
2022/07/18 09:55:49;;;;;;;2.97;1.15;;;;;;;29.41;20.46;97259.44;2061941;28;20209;-65
2022/07/18 09:56:51;;;;;;;11.60;1.77;;;;;;;29.57;20.72;97260.41;2061950;28;20202;-65
2022/07/18 09:58:01;;;;;;;7.97;1.60;;;;;;;29.76;21.00;97267.22;2062556;28;20190;-65
2022/07/18 09:59:02;;;;;;;10.63;1.67;;;;;;;30.18;20.03;97266.00;2061821;28;20193;-65
2022/07/18 10:00:05;;;;;;;11.52;1.70;;;;;;;30.38;20.14;97265.56;2062202;28;20198;-66
2022/07/18 10:01:10;;;;;;;2.95;1.40;;;;;;;30.25;20.08;97271.53;2062513;28;20662;-66
2022/07/18 10:02:11;;;;;;;5.97;1.65;;;;;;;29.54;20.12;97266.16;2061759;28;20589;-66
2022/07/18 10:03:14;;;;;;;3.58;1.30;;;;;;;30.25;20.23;97264.28;2061892;28;20198;-67
2022/07/18 10:04:15;;;;;;;5.07;1.40;;;;;;;30.16;19.81;97275.28;2062476;28;20198;-66
2022/07/18 10:05:17;;;;;;;7.60;1.47;;;;;;;30.21;20.39;97267.53;2062174;28;20199;-66
2022/07/18 10:06:19;;;;;;;12.80;1.90;;;;;;;30.85;20.49;97271.78;2062315;28;20438;-66
2022/07/18 10:07:21;;;;;;;3.07;1.27;;;;;;;30.85;19.52;97278.00;2061319;28;20465;-66
2022/07/18 10:08:26;;;;;;;4.23;1.70;;;;;;;30.88;19.55;97268.72;2061642;28;20432;-66
2022/07/18 10:09:28;;;;;;;2.03;1.10;;;;;;;31.40;20.10;97280.53;2062402;28;20672;-67
2022/07/18 10:10:30;;;;;;;2.53;1.40;;;;;;;31.56;19.08;97269.53;2061654;28;20436;-66
2022/07/18 10:11:32;;;;;;;2.80;1.20;;;;;;;31.14;19.43;97276.41;2061713;28;20923;-66
2022/07/18 10:12:34;;;;;;;6.53;1.30;;;;;;;29.59;20.93;97269.16;2061949;28;20461;-65
2022/07/18 10:13:37;;;;;;;2.43;1.60;;;;;;;29.54;21.04;97244.63;2062462;28;20435;-66
2022/07/18 10:14:40;;;;;;;3.40;1.37;;;;;;;29.87;20.88;97271.38;2062341;28;20462;-66
2022/07/18 10:15:44;;;;;;;3.33;1.37;;;;;;;30.10;20.31;97271.47;2062112;28;20435;-66
2022/07/18 10:16:46;;;;;;;5.33;1.43;;;;;;;29.52;20.59;97265.47;2062078;28;20424;-66
2022/07/18 10:17:48;;;;;;;3.07;1.23;;;;;;;30.10;20.07;97266.91;2062496;28;20424;-66
2022/07/18 10:18:50;;;;;;;8.90;1.77;;;;;;;30.55;19.99;97268.97;2062268;28;20424;-66
2022/07/18 10:19:51;;;;;;;2.73;1.53;;;;;;;30.49;19.53;97258.94;2061814;28;20432;-66
2022/07/18 10:20:58;;;;;;;3.17;1.20;;;;;;;30.86;19.68;97270.78;2062189;28;20428;-66
2022/07/18 10:22:00;;;;;;;7.97;1.60;;;;;;;30.61;19.37;97268.25;2061167;28;20517;-66
2022/07/18 10:23:13;;;;;;;4.60;1.43;;;;;;;29.84;20.59;97264.50;2062389;28;20781;-66
2022/07/18 10:52:28;;;;;;;2.95;1.38;;;;;;;31.17;19.38;97259.03;2084658;28;20551;-64
2022/07/18 10:54:01;;;;;;;8.52;1.85;;;;;;;31.31;18.88;97252.81;2084134;28;20193;-65
2022/07/18 10:55:02;;;;;;;2.95;1.30;;;;;;;31.30;18.85;97255.69;2082049;28;20220;-65
2022/07/18 10:56:04;;;;;;;2.63;1.30;;;;;;;31.68;18.53;97261.00;2082042;28;20204;-65
2022/07/18 10:57:08;;;;;;;4.10;1.33;;;;;;;32.16;18.85;97239.75;2079785;28;20802;-65
2022/07/18 10:58:09;;;;;;;2.03;1.40;;;;;;;31.96;18.08;97244.97;2077755;28;20421;-65
2022/07/18 10:59:14;;;;;;;7.33;1.50;;;;;;;31.95;18.60;97246.00;2080564;28;20636;-65
2022/07/18 11:00:22;;;;;;;4.60;1.80;;;;;;;31.76;19.23;97244.72;2082405;28;20434;-65
2022/07/18 11:01:25;;;;;;;2.30;1.30;;;;;;;32.10;18.73;97251.34;2082894;28;20784;-65
2022/07/18 11:02:32;;;;;;;3.53;1.83;;;;;;;32.42;18.46;97251.06;2074159;28;20455;-65
2022/07/18 11:03:33;;;;;;;3.50;1.60;;;;;;;32.40;18.75;97249.41;2074907;28;20455;-65
2022/07/18 11:04:37;;;;;;;3.00;1.50;;;;;;;32.34;18.68;97247.47;2072997;28;20426;-65
2022/07/18 11:05:44;;;;;;;2.20;1.43;;;;;;;32.18;19.13;97242.28;2070870;28;20423;-66
2022/07/18 11:07:13;;;;;;;4.50;1.40;;;;;;;32.16;19.46;97244.34;2076288;28;20445;-65
2022/07/18 11:08:17;;;;;;;2.23;1.60;;;;;;;32.27;19.00;97240.34;2084470;28;20417;-65
2022/07/18 11:09:40;;;;;;;4.50;1.47;;;;;;;31.17;20.06;97243.69;2082103;28;20964;-65
2022/07/18 11:10:50;;;;;;;3.60;1.40;;;;;;;31.73;20.13;97239.69;2082334;28;20429;-65
2022/07/18 11:12:17;;;;;;;4.60;1.30;;;;;;;32.23;19.17;97242.59;2080224;28;20418;-66
2022/07/18 11:13:28;;;;;;;2.97;1.73;;;;;;;31.84;19.92;97228.41;2082657;28;20434;-66
2022/07/18 11:14:57;;;;;;;5.70;1.80;;;;;;;32.38;19.35;97235.25;2083136;28;20471;-65
2022/07/18 11:16:08;;;;;;;6.87;1.50;;;;;;;32.68;18.93;97232.41;2073794;28;20443;-66
2022/07/18 11:17:10;;;;;;;1.90;1.40;;;;;;;33.20;18.41;97230.31;2070966;28;20534;-66
2022/07/18 11:18:11;;;;;;;2.27;1.33;;;;;;;32.84;18.59;97231.31;2080624;28;20438;-66
2022/07/18 11:19:13;;;;;;;3.80;1.60;;;;;;;32.95;19.21;97224.53;2081623;28;20909;-65
2022/07/18 11:20:29;;;;;;;2.80;1.50;;;;;;;32.70;19.20;97227.63;2083642;28;20421;-65
2022/07/18 11:21:33;;;;;;;3.27;1.70;;;;;;;32.08;19.59;97239.91;2080827;28;20434;-64
2022/07/18 11:22:40;;;;;;;17.90;9.93;;;;;;;31.84;20.35;97232.97;2080649;28;20978;-64
2022/07/18 11:24:09;;;;;;;3.13;1.50;;;;;;;31.86;20.12;97233.63;2078370;28;20431;-65
2022/07/18 11:25:11;;;;;;;6.37;3.80;;;;;;;31.99;20.13;97225.69;2078022;28;20877;-66
2022/07/18 11:26:33;;;;;;;31.33;15.97;;;;;;;32.28;19.79;97223.94;2074423;28;20426;-66
2022/07/18 11:27:40;;;;;;;41.53;22.40;;;;;;;32.69;19.75;97217.03;2074328;28;20457;-66
2022/07/18 11:28:41;;;;;;;5.53;2.53;;;;;;;32.97;19.01;97218.94;2077406;28;20514;-66
2022/07/18 11:29:43;;;;;;;3.80;2.43;;;;;;;33.34;19.03;97219.59;2079039;28;21001;-66
2022/07/18 11:30:45;;;;;;;2.93;1.73;;;;;;;33.15;19.51;97218.41;2078630;28;20433;-66
2022/07/18 11:31:53;;;;;;;4.80;1.60;;;;;;;32.43;20.22;97217.63;2080495;28;20438;-66
2022/07/18 11:32:54;;;;;;;6.07;1.73;;;;;;;32.45;19.81;97207.47;2078361;28;20441;-66
2022/07/18 11:34:00;;;;;;;2.80;1.50;;;;;;;32.10;20.50;97226.19;2081184;28;20996;-67
2022/07/18 11:35:05;;;;;;;4.43;1.43;;;;;;;32.35;20.00;97218.59;2083047;28;20433;-66
2022/07/18 11:36:12;;;;;;;5.63;1.53;;;;;;;32.75;20.00;97215.41;2083519;28;20425;-66
2022/07/18 11:37:14;;;;;;;2.57;1.60;;;;;;;32.01;19.84;97207.44;2083251;28;20462;-66
2022/07/18 11:38:16;;;;;;;2.50;1.57;;;;;;;32.04;20.35;97212.44;2082258;28;20438;-66
2022/07/18 11:39:29;;;;;;;3.97;1.77;;;;;;;31.35;21.17;97215.50;2078940;28;20429;-66
2022/07/18 11:40:31;;;;;;;3.27;1.30;;;;;;;31.14;21.59;97213.56;2081778;28;20431;-66
2022/07/18 11:41:36;;;;;;;9.00;1.90;;;;;;;32.00;20.34;97213.00;2081843;28;20821;-66
2022/07/18 11:42:38;;;;;;;3.43;1.77;;;;;;;31.56;20.41;97212.06;2081906;28;20981;-66
2022/07/18 11:43:40;;;;;;;2.73;1.40;;;;;;;31.46;20.79;97216.91;2083855;28;20471;-66
2022/07/18 11:44:41;;;;;;;2.70;1.40;;;;;;;32.35;20.32;97205.09;2080946;28;20431;-66
2022/07/18 11:45:44;;;;;;;2.80;1.47;;;;;;;32.86;19.82;97207.63;2080640;28;20429;-66
2022/07/18 11:46:45;;;;;;;3.80;1.43;;;;;;;32.68;19.18;97215.34;2081362;28;20456;-66
2022/07/18 11:47:52;;;;;;;10.03;1.80;;;;;;;32.55;19.55;97210.66;2076899;28;20829;-66
2022/07/18 11:48:59;;;;;;;8.73;2.07;;;;;;;31.94;20.70;97209.22;2081926;28;20421;-67
2022/07/18 11:50:01;;;;;;;8.70;2.10;;;;;;;32.58;20.01;97214.84;2083023;28;20421;-64
2022/07/18 11:51:08;;;;;;;16.73;10.33;;;;;;;33.23;19.10;97212.84;2082448;28;21113;-65
2022/07/18 11:52:09;;;;;;;7.77;3.37;;;;;;;33.48;18.66;97209.69;2080920;28;20455;-64
2022/07/18 11:53:11;;;;;;;9.63;5.10;;;;;;;34.11;18.59;97211.41;2081970;28;20430;-64
2022/07/18 11:54:22;;;;;;;17.53;11.30;;;;;;;34.78;18.08;97206.03;2079897;28;20418;-64
2022/07/18 11:55:37;;;;;;;4.40;2.17;;;;;;;33.70;18.58;97203.09;2080074;28;20425;-64
2022/07/18 11:56:51;;;;;;;4.60;1.40;;;;;;;33.83;18.47;97207.75;2079815;28;20453;-64
2022/07/18 11:57:52;;;;;;;3.90;1.53;;;;;;;33.59;18.29;97209.09;2079261;28;20445;-64
2022/07/18 11:58:54;;;;;;;1.90;1.33;;;;;;;33.20;18.77;97203.28;2080531;28;20425;-65
2022/07/18 11:59:55;;;;;;;4.37;1.60;;;;;;;33.14;18.58;97204.06;2082375;28;20433;-65
2022/07/18 12:00:59;;;;;;;3.60;1.30;;;;;;;34.01;18.26;97201.78;2077462;28;20873;-65
2022/07/18 12:30:18;;;;;;;4.03;2.00;;;;;;;34.70;17.60;97179.97;2085432;28;20561;-66
2022/07/18 12:31:40;;;;;;;4.43;1.80;;;;;;;35.02;17.64;97174.75;2081855;28;20429;-65
2022/07/18 12:32:58;;;;;;;4.20;1.60;;;;;;;35.18;17.54;97186.19;2078486;28;20745;-66
2022/07/18 12:34:14;;;;;;;10.73;1.70;;;;;;;36.23;16.71;97177.00;2077619;28;20465;-66
2022/07/18 12:35:27;;;;;;;2.10;1.30;;;;;;;36.50;16.27;97180.34;2077122;28;20426;-65
2022/07/18 12:36:29;;;;;;;7.30;1.63;;;;;;;35.80;16.54;97187.44;2076012;28;20914;-65
2022/07/18 12:37:30;;;;;;;10.90;1.80;;;;;;;34.80;17.69;97177.66;2076656;28;20509;-65
2022/07/18 12:38:32;;;;;;;9.03;1.33;;;;;;;33.68;18.47;97182.69;2074117;28;20431;-65
2022/07/18 12:39:33;;;;;;;5.77;1.67;;;;;;;33.75;18.53;97174.59;2077855;28;20442;-66
2022/07/18 12:40:38;;;;;;;4.93;1.70;;;;;;;33.43;18.73;97179.69;2077601;28;20442;-66
2022/07/18 12:41:39;;;;;;;14.03;1.80;;;;;;;32.98;19.27;97178.16;2077577;28;20437;-65
2022/07/18 12:42:42;;;;;;;5.93;1.47;;;;;;;32.54;19.12;97182.81;2077885;28;20914;-67
2022/07/18 12:43:43;;;;;;;7.20;1.60;;;;;;;32.46;19.15;97174.84;2076297;28;20450;-65
2022/07/18 12:44:45;;;;;;;3.20;1.60;;;;;;;33.44;19.03;97181.34;2074406;28;20427;-65
2022/07/18 12:45:47;;;;;;;4.30;1.40;;;;;;;34.08;18.08;97177.44;2075593;28;20833;-64
2022/07/18 12:46:49;;;;;;;10.23;1.93;;;;;;;33.89;18.14;97173.63;2077078;28;20426;-65
2022/07/18 12:47:50;;;;;;;11.27;2.03;;;;;;;34.85;17.28;97179.78;2077509;28;20429;-64
2022/07/18 12:48:52;;;;;;;2.50;1.50;;;;;;;35.61;16.99;97177.50;2076880;28;20438;-65
2022/07/18 12:49:53;;;;;;;7.97;1.60;;;;;;;35.09;17.41;97166.59;2077608;28;20470;-65
2022/07/18 12:50:58;;;;;;;2.30;1.50;;;;;;;33.85;18.17;97172.34;2078480;28;20445;-65
2022/07/18 12:51:59;;;;;;;8.00;1.63;;;;;;;33.76;18.33;97176.25;2078124;28;20446;-65
2022/07/18 12:53:01;;;;;;;5.90;1.60;;;;;;;33.59;18.85;97173.91;2077839;28;20969;-65
2022/07/18 12:54:03;;;;;;;2.40;1.47;;;;;;;33.53;18.53;97172.00;2078516;28;20433;-66
2022/07/18 12:55:06;;;;;;;3.97;1.43;;;;;;;33.89;18.04;97170.94;2078423;28;20431;-65
2022/07/18 12:56:08;;;;;;;7.17;1.43;;;;;;;34.20;17.74;97168.69;2078693;28;20563;-65
2022/07/18 12:57:09;;;;;;;5.57;1.53;;;;;;;33.76;18.00;97168.97;2078022;28;20826;-65
2022/07/18 12:58:11;;;;;;;5.87;1.83;;;;;;;33.55;17.91;97161.84;2078589;28;20481;-65
2022/07/18 12:59:12;;;;;;;11.53;2.10;;;;;;;34.00;17.70;97175.75;2078348;28;21202;-65
2022/07/18 13:00:14;;;;;;;5.37;1.70;;;;;;;34.34;17.54;97162.25;2078470;28;20917;-66
2022/07/18 13:01:15;;;;;;;4.60;1.57;;;;;;;34.02;17.71;97162.81;2078423;28;20441;-66
2022/07/18 13:02:18;;;;;;;3.93;1.90;;;;;;;34.31;17.90;97160.78;2078071;28;20447;-65
2022/07/18 13:03:19;;;;;;;9.73;2.10;;;;;;;33.93;18.08;97165.91;2077791;28;20433;-65
2022/07/18 13:04:21;;;;;;;4.20;1.90;;;;;;;35.18;17.47;97169.91;2078495;28;20905;-65
2022/07/18 13:05:23;;;;;;;3.97;1.43;;;;;;;35.93;16.52;97162.09;2077292;28;20419;-65
2022/07/18 13:06:25;;;;;;;3.90;1.97;;;;;;;33.69;17.99;97158.13;2077202;28;20437;-66
2022/07/18 13:07:26;;;;;;;5.53;1.40;;;;;;;34.17;17.47;97153.69;2078084;28;20616;-66
2022/07/18 13:08:28;;;;;;;8.03;1.73;;;;;;;34.95;17.29;97158.47;2078357;28;20438;-66
2022/07/18 13:09:29;;;;;;;11.23;1.47;;;;;;;36.04;16.58;97160.59;2077618;28;20935;-65
2022/07/18 13:10:32;;;;;;;5.70;1.67;;;;;;;36.80;16.10;97159.78;2077617;28;21083;-65
2022/07/18 13:11:33;;;;;;;2.63;1.40;;;;;;;35.91;16.00;97157.94;2077628;28;20434;-67
2022/07/18 13:12:35;;;;;;;5.37;2.13;;;;;;;34.19;17.45;97159.72;2076719;28;20995;-65
2022/07/18 13:13:37;;;;;;;9.10;1.90;;;;;;;34.85;17.21;97159.94;2079873;28;20426;-65
2022/07/18 13:14:39;;;;;;;5.10;1.90;;;;;;;35.79;16.27;97152.34;2075964;28;20433;-67
2022/07/18 13:15:40;;;;;;;22.27;2.30;;;;;;;36.49;15.95;97167.81;2085579;28;20933;-65
2022/07/18 13:16:47;;;;;;;5.50;1.50;;;;;;;37.05;16.09;97157.91;2077334;28;20521;-66
2022/07/18 13:17:49;;;;;;;4.37;1.83;;;;;;;36.71;15.93;97156.53;2077133;28;20822;-66
2022/07/18 13:18:51;;;;;;;11.07;1.43;;;;;;;37.18;16.04;97158.81;2077310;28;20426;-66
2022/07/18 13:19:52;;;;;;;3.10;1.33;;;;;;;37.57;15.19;97157.53;2076668;28;20439;-66
2022/07/18 13:20:53;;;;;;;2.03;1.20;;;;;;;37.80;15.18;97155.13;2078545;28;20426;-66
2022/07/18 13:21:57;;;;;;;2.10;1.27;;;;;;;37.51;15.16;97161.19;2077207;28;20426;-66
2022/07/18 13:23:01;;;;;;;4.57;1.37;;;;;;;37.67;15.41;97154.25;2078235;28;20430;-66
2022/07/18 13:24:03;;;;;;;7.07;1.70;;;;;;;38.18;15.11;97160.28;2075769;28;20789;-66
2022/07/18 13:25:07;;;;;;;1.90;1.30;;;;;;;38.25;14.42;97156.59;2078035;28;20430;-66
2022/07/18 13:26:08;;;;;;;2.97;1.40;;;;;;;38.54;14.40;97158.47;2077682;28;21096;-66
2022/07/18 13:27:10;;;;;;;3.90;1.30;;;;;;;38.53;14.75;97154.06;2076562;28;20450;-66
2022/07/18 13:28:11;;;;;;;9.30;1.40;;;;;;;38.80;14.39;97150.91;2078352;28;20803;-67
2022/07/18 13:29:13;;;;;;;4.03;1.37;;;;;;;38.47;14.48;97151.47;2076296;28;20449;-66
2022/07/18 13:30:14;;;;;;;3.00;1.40;;;;;;;37.73;14.48;97153.31;2076629;28;20470;-66
2022/07/18 13:31:16;;;;;;;5.13;1.50;;;;;;;37.21;15.09;97150.19;2076339;28;20996;-66
2022/07/18 13:32:17;;;;;;;11.53;2.10;;;;;;;37.30;14.84;97146.09;2077385;28;20465;-66
2022/07/18 13:33:19;;;;;;;11.23;1.97;;;;;;;37.88;14.85;97150.22;2078227;28;20480;-65
2022/07/18 13:34:21;;;;;;;38.83;13.80;;;;;;;37.94;15.32;97150.34;2078973;28;20880;-65
2022/07/18 13:35:22;;;;;;;15.03;3.30;;;;;;;38.00;14.93;97147.53;2078161;28;20427;-65
2022/07/18 13:36:24;;;;;;;6.80;2.17;;;;;;;38.12;14.86;97150.31;2078474;28;20929;-66
2022/07/18 13:37:26;;;;;;;3.83;1.40;;;;;;;38.10;14.52;97155.16;2077637;28;21024;-65
2022/07/18 13:38:27;;;;;;;6.90;2.03;;;;;;;37.77;14.91;97158.34;2079260;28;20851;-65
2022/07/18 13:39:29;;;;;;;3.43;1.80;;;;;;;38.12;14.71;97154.91;2081107;28;20430;-66
2022/07/18 13:40:30;;;;;;;2.93;1.60;;;;;;;37.80;14.85;97147.84;2078933;28;20952;-66
2022/07/18 13:41:32;;;;;;;5.70;1.60;;;;;;;36.60;15.13;97149.94;2072507;28;20427;-65
2022/07/18 13:42:36;;;;;;;2.73;1.50;;;;;;;35.65;16.08;97154.31;2072230;28;20850;-66
2022/07/18 13:43:39;;;;;;;11.63;1.80;;;;;;;34.45;16.88;97147.25;2072188;28;20431;-66
2022/07/18 13:44:42;;;;;;;7.27;1.27;;;;;;;35.41;16.70;97148.56;2072244;28;21166;-66
2022/07/18 13:45:43;;;;;;;7.53;1.60;;;;;;;36.31;16.04;97149.53;2071624;28;20864;-65
2022/07/18 13:46:45;;;;;;;4.93;1.73;;;;;;;36.63;15.96;97145.94;2073734;28;20427;-65
2022/07/18 13:47:46;;;;;;;3.27;1.60;;;;;;;36.69;15.26;97143.16;2073055;28;20969;-66
2022/07/18 13:48:49;;;;;;;4.53;1.30;;;;;;;36.32;15.93;97140.31;2071987;28;20439;-65
2022/07/18 13:49:51;;;;;;;8.30;1.53;;;;;;;37.09;15.52;97137.34;2071948;28;20438;-66
2022/07/18 13:50:53;;;;;;;12.33;1.67;;;;;;;36.51;15.80;97143.97;2072531;28;20459;-66
2022/07/18 13:51:54;;;;;;;4.20;1.63;;;;;;;36.57;15.82;97140.34;2072233;28;21126;-66
2022/07/18 13:52:57;;;;;;;5.43;1.10;;;;;;;37.02;15.45;97128.41;2072596;28;20427;-66
2022/07/18 13:53:58;;;;;;;2.00;1.27;;;;;;;37.79;15.34;97143.41;2071685;28;20983;-66
2022/07/18 13:55:00;;;;;;;3.70;1.50;;;;;;;38.23;14.40;97140.47;2072708;28;20423;-66
2022/07/18 13:56:02;;;;;;;11.20;1.73;;;;;;;38.30;14.62;97141.25;2072536;28;20432;-66
2022/07/18 13:57:03;;;;;;;5.03;1.27;;;;;;;37.03;15.16;97135.53;2072372;28;20723;-66
2022/07/18 13:58:05;;;;;;;5.47;1.97;;;;;;;36.27;15.72;97130.09;2071655;28;20431;-66
2022/07/18 13:59:07;;;;;;;3.20;1.57;;;;;;;36.26;16.07;97133.88;2072080;28;20427;-65
2022/07/18 14:00:10;;;;;;;8.33;1.47;;;;;;;35.11;16.91;97134.66;2072297;28;20446;-65
2022/07/18 14:01:13;;;;;;;8.70;1.63;;;;;;;36.33;16.02;97133.00;2072676;28;20419;-66
2022/07/18 14:02:15;;;;;;;4.23;1.77;;;;;;;36.22;16.24;97232.38;2071251;28;20508;-65
2022/07/18 14:18:38;;;;;;;2.20;1.47;;;;;;;38.68;14.13;97120.88;2102046;27;21084;-65
2022/07/18 14:19:40;;;;;;;3.93;1.30;;;;;;;38.87;13.55;97121.59;2095312;28;20772;-66
2022/07/18 14:20:41;;;;;;;3.07;1.30;;;;;;;37.34;14.32;97124.75;2095217;28;20413;-66
2022/07/18 14:21:42;;;;;;;1.90;1.10;;;;;;;38.23;14.03;97116.78;2092028;28;20439;-66
2022/07/18 14:22:44;;;;;;;2.00;1.20;;;;;;;38.19;14.21;97118.31;2078734;28;20435;-66
2022/07/18 14:23:46;;;;;;;7.53;1.30;;;;;;;38.46;13.90;97126.09;2077807;28;20437;-65
2022/07/18 14:24:47;;;;;;;2.07;1.30;;;;;;;38.94;13.53;97123.38;2078748;28;21294;-66
2022/07/18 14:25:50;;;;;;;3.83;1.80;;;;;;;37.01;14.14;97117.75;2078587;28;20517;-66
2022/07/18 14:26:53;;;;;;;4.07;1.50;;;;;;;36.32;14.80;97112.31;2076625;28;20437;-65
2022/07/18 14:27:56;;;;;;;3.30;1.23;;;;;;;36.76;14.63;97111.31;2070351;28;20470;-66
2022/07/18 14:28:57;;;;;;;3.00;1.33;;;;;;;36.44;15.08;97114.13;2070411;28;20427;-66
2022/07/18 14:29:59;;;;;;;4.20;1.50;;;;;;;36.58;15.48;97109.41;2070518;28;20427;-65
2022/07/18 14:31:01;;;;;;;5.63;1.40;;;;;;;36.30;14.82;97112.53;2070546;28;20432;-66
2022/07/18 14:32:03;;;;;;;4.27;1.57;;;;;;;36.21;14.95;97116.56;2069400;28;20513;-66
2022/07/18 14:33:04;;;;;;;2.73;1.50;;;;;;;36.11;15.39;97103.47;2070388;28;20458;-64
2022/07/18 14:34:11;;;;;;;15.10;9.23;;;;;;;37.35;15.11;97113.63;2070471;28;20427;-66
2022/07/18 14:35:12;;;;;;;23.57;15.97;;;;;;;37.55;14.46;97113.34;2070177;28;20443;-65
2022/07/18 14:36:14;;;;;;;7.20;3.77;;;;;;;37.45;14.82;97113.06;2070246;28;20778;-66
2022/07/18 14:37:16;;;;;;;15.13;5.50;;;;;;;37.55;14.96;97112.53;2069286;28;20459;-67
2022/07/18 14:38:17;;;;;;;2.40;1.40;;;;;;;36.95;14.97;97111.31;2070237;28;20463;-66
2022/07/18 14:39:20;;;;;;;2.80;1.17;;;;;;;36.24;14.50;97110.69;2067322;28;20428;-67
2022/07/18 14:40:22;;;;;;;11.17;1.77;;;;;;;35.15;16.25;97111.50;2070377;28;20423;-66
2022/07/18 14:41:24;;;;;;;8.90;1.50;;;;;;;35.77;15.96;97108.28;2069909;28;20420;-66
2022/07/18 14:42:26;;;;;;;6.43;1.57;;;;;;;36.65;15.34;97105.78;2069324;28;20462;-67
2022/07/18 14:43:28;;;;;;;4.13;1.63;;;;;;;36.63;15.33;97100.53;2070121;28;20514;-67